WetterOnline ( http://www.wetteronline.de )

Wetter aktuell Lauterbach

Aktuelles Wetter: Wasserkuppe (925m)

6-stündlich | Neueste Meldungen
Ortszeit Temperatur Wetter
Mi, 20.06. 2:00 13.4° C fast wolkenlos
Di, 19.06. 20:00 15.5° C wolkig
Di, 19.06. 14:00 16.8° C bewölkt
Di, 19.06. 8:00 11.9° C Nebel (zunehmend)
Di, 19.06. 2:00 11.8° C leicht bewölkt
Mo, 18.06. 20:00 15.0° C leicht bewölkt
Mo, 18.06. 14:00 15.6° C bewölkt
Mo, 18.06. 8:00 10.7° C wolkig
Ortszeit Temperatur Wetter
Mi, 20.06. 3:30 13.6° C fast wolkenlos
Mi, 20.06. 3:20 13.6° C fast wolkenlos
Mi, 20.06. 3:10 13.7° C leicht bewölkt
Mi, 20.06. 3:00 13.5° C wolkig
Mi, 20.06. 2:50 13.5° C wolkig
Mi, 20.06. 2:40 13.5° C leicht bewölkt
Mi, 20.06. 2:30 13.3° C leicht bewölkt
Mi, 20.06. 2:00 13.4° C fast wolkenlos
Mi, 20.06. 1:30 13.5° C leicht bewölkt
Mi, 20.06. 1:00 13.4° C leicht bewölkt
Mi, 20.06. 0:30 13.2° C wolkenlos
Ortszeit Relative Feuchte Sichtweite
Mi, 20.06. 2:00 87% 28 km
Di, 19.06. 20:00 85% 65 km
Di, 19.06. 14:00 78% 70 km
Di, 19.06. 8:00 98% 100 m
Di, 19.06. 2:00 94% 15 km
Mo, 18.06. 20:00 72% >70 km
Mo, 18.06. 14:00 68% >70 km
Mo, 18.06. 8:00 77% 45 km
Ortszeit Relative Feuchte Sichtweite
Mi, 20.06. 3:30 83% 30 km
Mi, 20.06. 3:20 83% -
Mi, 20.06. 3:10 83% -
Mi, 20.06. 3:00 84% 30 km
Mi, 20.06. 2:50 84% -
Mi, 20.06. 2:40 84% -
Mi, 20.06. 2:30 85% 35 km
Mi, 20.06. 2:00 87% 28 km
Mi, 20.06. 1:30 84% 35 km
Mi, 20.06. 1:00 90% 20 km
Mi, 20.06. 0:30 91% 14 km
Ortszeit Niederschlagsmenge Niederschlagsart
Mi, 20.06. 2:00 0.0 l/m2 in 6 Std. -
Di, 19.06. 20:00 0.0 l/m2 in 12 Std. -
Di, 19.06. 14:00 0.0 l/m2 in 6 Std. Nebel
Di, 19.06. 8:00 0.0 l/m2 in 12 Std. Nebel
Di, 19.06. 2:00 0.0 l/m2 in 6 Std. -
Mo, 18.06. 20:00 0.0 l/m2 in 12 Std. -
Mo, 18.06. 14:00 0.0 l/m2 in 6 Std. -
Mo, 18.06. 8:00 0.1 l/m2 in 12 Std. -
Ortszeit Niederschlagsmenge Niederschlagsart
Mi, 20.06. 3:30 0.0 l/m2 in 1 Std. -
Mi, 20.06. 3:20 keine Meldung -
Mi, 20.06. 3:10 keine Meldung -
Mi, 20.06. 3:00 0.0 l/m2 in 1 Std. -
Mi, 20.06. 2:50 keine Meldung -
Mi, 20.06. 2:40 keine Meldung -
Mi, 20.06. 2:30 0.0 l/m2 in 1 Std. -
Mi, 20.06. 2:00 0.0 l/m2 in 1 Std. -
Mi, 20.06. 1:30 0.0 l/m2 in 1 Std. -
Mi, 20.06. 1:00 0.0 l/m2 in 1 Std. -
Mi, 20.06. 0:30 0.0 l/m2 in 1 Std. -
Ortszeit Stärke Spitze Richtung
km/h Bft. km/h Grad Sektor
Mi, 20.06. 2:00 13 3 19 350° N
Di, 19.06. 20:00 11 2 22 300° NW
Di, 19.06. 14:00 13 3 28 250° W
Di, 19.06. 8:00 14 3 32 270° W
Di, 19.06. 2:00 22 4 29 240° SW
Mo, 18.06. 20:00 14 3 32 240° SW
Mo, 18.06. 14:00 14 3 29 220° SW
Mo, 18.06. 8:00 13 3 19 240° SW
Ortszeit Stärke Spitze Richtung
km/h Bft. km/h Grad Sektor
Mi, 20.06. 3:30 11 2 14 360° N
Mi, 20.06. 3:20 11 2 - 360° N
Mi, 20.06. 3:10 11 2 - 360° N
Mi, 20.06. 3:00 13 3 15 360° N
Mi, 20.06. 2:50 13 3 - 360° N
Mi, 20.06. 2:40 13 3 - 350° N
Mi, 20.06. 2:30 14 3 14 350° N
Mi, 20.06. 2:00 13 3 15 350° N
Mi, 20.06. 1:30 13 3 15 340° N
Mi, 20.06. 1:00 13 3 15 330° NW
Mi, 20.06. 0:30 13 3 15 310° NW
Ortszeit Untergrenze Bedeckung Gattung
total tief tief mittel hoch
Mi, 20.06. 2:00 6000 m 1/8 1/8 - - -
Di, 19.06. 20:00 270 m 6/8 6/8 Cu - -
Di, 19.06. 14:00 420 m 7/8 7/8 Cu - -
Di, 19.06. 8:00 <30 m 8/8 8/8 - - -
Di, 19.06. 2:00 240 m 4/8 5/8 - - -
Mo, 18.06. 20:00 660 m 4/8 2/8 Cu Ac Ci
Mo, 18.06. 14:00 630 m 7/8 7/8 Cu - -
Mo, 18.06. 8:00 930 m 6/8 6/8 Sc - Ci
Ortszeit Bedeckungsgrad in Achtel und Wolkenuntergrenze
Mi, 20.06. 3:30 1(6300m)
Mi, 20.06. 3:20 1(6300m)
Mi, 20.06. 3:10 2(6300m)
Mi, 20.06. 3:00 1(5700m) 5(6300m)
Mi, 20.06. 2:50 1(5700m) 5(6300m)
Mi, 20.06. 2:40 2(5700m) 4(6600m)
Mi, 20.06. 2:30 3(5700m)
Mi, 20.06. 2:00 1(6000m)
Mi, 20.06. 1:30 2(6000m)
Mi, 20.06. 1:00 3(5700m)
Mi, 20.06. 0:30 keine Wolken
Ortszeit Stationsdruck (hPa) Tendenz (hPa in 3 Std.)
Mi, 20.06. 2:00 919 - 0,2
Di, 19.06. 20:00 919 - 0,1
Di, 19.06. 14:00 919 + 0,8
Di, 19.06. 8:00 917 + 0,8
Di, 19.06. 2:00 917 - 0,3
Mo, 18.06. 20:00 916 - 0,5
Mo, 18.06. 14:00 917 + 0,1
Mo, 18.06. 8:00 915 + 0,6
Ortszeit Stationsdruck (hPa) Tendenz (hPa in 3 Std.)
Mi, 20.06. 3:30 919 - 0,5
Mi, 20.06. 3:20 919 keine Meldung
Mi, 20.06. 3:10 919 keine Meldung
Mi, 20.06. 3:00 919 - 0,4
Mi, 20.06. 2:50 919 keine Meldung
Mi, 20.06. 2:40 919 keine Meldung
Mi, 20.06. 2:30 919 - 0,3
Mi, 20.06. 2:00 919 - 0,2
Mi, 20.06. 1:30 919 - 0,3
Mi, 20.06. 1:00 919 0,0
Mi, 20.06. 0:30 919 + 0,2
Ortszeit Schneehöhe (cm)
Mi, 20.06. 2:00 -
Di, 19.06. 20:00 0
Di, 19.06. 14:00 0
Di, 19.06. 8:00 0
Di, 19.06. 2:00 -
Mo, 18.06. 20:00 0
Mo, 18.06. 14:00 0
Mo, 18.06. 8:00 0
Ortszeit Schneehöhe (cm)
Mi, 20.06. 3:30 -
Mi, 20.06. 3:20 -
Mi, 20.06. 3:10 -
Mi, 20.06. 3:00 -
Mi, 20.06. 2:50 -
Mi, 20.06. 2:40 -
Mi, 20.06. 2:30 -
Mi, 20.06. 2:00 -
Mi, 20.06. 1:30 -
Mi, 20.06. 1:00 -
Mi, 20.06. 0:30 -
Link zu dieser Seite / Seite empfehlen

Das Wetter in ...